sensor_id;sensor_type;location;lat;lon;timestamp;pressure;altitude;pressure_sealevel;temperature;humidity
62708;BME280;48769;51.624;5.886;2023-03-11T00:00:23;100513.50;;;1.60;100.00
62708;BME280;48769;51.624;5.886;2023-03-11T00:02:52;100519.75;;;1.52;100.00
62708;BME280;48769;51.624;5.886;2023-03-11T00:05:30;100521.72;;;1.40;100.00
62708;BME280;48769;51.624;5.886;2023-03-11T00:07:56;100521.81;;;1.34;100.00
62708;BME280;48769;51.624;5.886;2023-03-11T00:10:36;100526.19;;;1.34;100.00
62708;BME280;48769;51.624;5.886;2023-03-11T00:13:04;100532.25;;;1.33;100.00
62708;BME280;48769;51.624;5.886;2023-03-11T00:15:30;100523.63;;;1.29;100.00
62708;BME280;48769;51.624;5.886;2023-03-11T00:17:56;100514.22;;;1.24;100.00
62708;BME280;48769;51.624;5.886;2023-03-11T00:20:25;100517.81;;;1.16;100.00
62708;BME280;48769;51.624;5.886;2023-03-11T00:22:51;100523.19;;;1.07;100.00
62708;BME280;48769;51.624;5.886;2023-03-11T00:25:18;100518.03;;;1.04;100.00
62708;BME280;48769;51.624;5.886;2023-03-11T00:27:44;100514.66;;;0.99;100.00
62708;BME280;48769;51.624;5.886;2023-03-11T00:30:11;100530.31;;;0.96;100.00
62708;BME280;48769;51.624;5.886;2023-03-11T00:32:37;100536.41;;;0.95;100.00
62708;BME280;48769;51.624;5.886;2023-03-11T00:35:03;100539.88;;;0.94;100.00
62708;BME280;48769;51.624;5.886;2023-03-11T00:37:29;100540.00;;;0.88;100.00
62708;BME280;48769;51.624;5.886;2023-03-11T00:39:54;100540.00;;;0.86;100.00
62708;BME280;48769;51.624;5.886;2023-03-11T00:42:20;100543.47;;;0.87;100.00
62708;BME280;48769;51.624;5.886;2023-03-11T00:44:45;100553.88;;;0.87;100.00
62708;BME280;48769;51.624;5.886;2023-03-11T00:47:11;100552.16;;;0.86;100.00
62708;BME280;48769;51.624;5.886;2023-03-11T00:49:37;100558.31;;;0.82;100.00
62708;BME280;48769;51.624;5.886;2023-03-11T00:52:02;100552.34;;;0.75;100.00
62708;BME280;48769;51.624;5.886;2023-03-11T00:54:28;100550.59;;;0.74;100.00
62708;BME280;48769;51.624;5.886;2023-03-11T00:56:53;100555.84;;;0.73;100.00
62708;BME280;48769;51.624;5.886;2023-03-11T00:59:19;100557.53;;;0.75;100.00
62708;BME280;48769;51.624;5.886;2023-03-11T01:01:44;100555.84;;;0.71;100.00
62708;BME280;48769;51.624;5.886;2023-03-11T01:04:09;100559.38;;;0.68;100.00
62708;BME280;48769;51.624;5.886;2023-03-11T01:06:35;100565.44;;;0.67;100.00
62708;BME280;48769;51.624;5.886;2023-03-11T01:09:00;100561.13;;;0.66;100.00
62708;BME280;48769;51.624;5.886;2023-03-11T01:11:26;100568.94;;;0.66;100.00
62708;BME280;48769;51.624;5.886;2023-03-11T01:13:51;100561.22;;;0.62;100.00
62708;BME280;48769;51.624;5.886;2023-03-11T01:16:16;100569.88;;;0.61;100.00
62708;BME280;48769;51.624;5.886;2023-03-11T01:18:42;100575.97;;;0.58;100.00
62708;BME280;48769;51.624;5.886;2023-03-11T01:21:07;100576.84;;;0.59;100.00
62708;BME280;48769;51.624;5.886;2023-03-11T01:23:32;100577.75;;;0.56;100.00
62708;BME280;48769;51.624;5.886;2023-03-11T01:25:58;100584.66;;;0.57;100.00
62708;BME280;48769;51.624;5.886;2023-03-11T01:28:23;100591.59;;;0.55;100.00
62708;BME280;48769;51.624;5.886;2023-03-11T01:30:49;100589.03;;;0.54;100.00
62708;BME280;48769;51.624;5.886;2023-03-11T01:33:16;100598.59;;;0.53;100.00
62708;BME280;48769;51.624;5.886;2023-03-11T01:35:43;100602.91;;;0.54;100.00
62708;BME280;48769;51.624;5.886;2023-03-11T01:38:08;100606.38;;;0.52;100.00
62708;BME280;48769;51.624;5.886;2023-03-11T01:40:43;100595.19;;;0.48;100.00
62708;BME280;48769;51.624;5.886;2023-03-11T01:48:49;100594.41;;;0.43;100.00
62708;BME280;48769;51.624;5.886;2023-03-11T01:53:53;100599.41;;;0.55;100.00
62708;BME280;48769;51.624;5.886;2023-03-11T01:56:20;100598.50;;;0.59;100.00
62708;BME280;48769;51.624;5.886;2023-03-11T01:58:47;100611.28;;;0.73;100.00
62708;BME280;48769;51.624;5.886;2023-03-11T02:01:15;100612.91;;;0.80;100.00
62708;BME280;48769;51.624;5.886;2023-03-11T02:03:41;100606.75;;;0.86;100.00
62708;BME280;48769;51.624;5.886;2023-03-11T02:06:15;100605.81;;;0.90;100.00
62708;BME280;48769;51.624;5.886;2023-03-11T02:08:42;100606.69;;;0.90;100.00
62708;BME280;48769;51.624;5.886;2023-03-11T02:11:12;100613.53;;;0.96;100.00
62708;BME280;48769;51.624;5.886;2023-03-11T02:13:40;100606.56;;;0.98;100.00
62708;BME280;48769;51.624;5.886;2023-03-11T02:16:06;100603.03;;;1.02;100.00
62708;BME280;48769;51.624;5.886;2023-03-11T02:18:32;100613.41;;;1.04;100.00
62708;BME280;48769;51.624;5.886;2023-03-11T02:23:32;100621.97;;;1.10;100.00
62708;BME280;48769;51.624;5.886;2023-03-11T02:26:13;100609.94;;;1.03;100.00
62708;BME280;48769;51.624;5.886;2023-03-11T02:28:41;100620.34;;;1.03;100.00
62708;BME280;48769;51.624;5.886;2023-03-11T02:31:07;100627.34;;;1.01;100.00
62708;BME280;48769;51.624;5.886;2023-03-11T02:33:35;100623.03;;;0.97;100.00
62708;BME280;48769;51.624;5.886;2023-03-11T02:36:01;100632.63;;;0.95;100.00
62708;BME280;48769;51.624;5.886;2023-03-11T02:38:27;100629.09;;;0.99;100.00
62708;BME280;48769;51.624;5.886;2023-03-11T02:40:58;100623.94;;;0.98;100.00
62708;BME280;48769;51.624;5.886;2023-03-11T02:43:34;100628.28;;;0.94;100.00
62708;BME280;48769;51.624;5.886;2023-03-11T02:46:03;100619.53;;;1.00;100.00
62708;BME280;48769;51.624;5.886;2023-03-11T02:48:30;100624.69;;;1.04;100.00
62708;BME280;48769;51.624;5.886;2023-03-11T02:50:56;100629.09;;;0.99;100.00
62708;BME280;48769;51.624;5.886;2023-03-11T02:53:23;100623.91;;;0.99;100.00
62708;BME280;48769;51.624;5.886;2023-03-11T02:55:49;100618.59;;;1.05;100.00
62708;BME280;48769;51.624;5.886;2023-03-11T02:58:15;100625.47;;;1.09;100.00
62708;BME280;48769;51.624;5.886;2023-03-11T03:00:40;100613.44;;;1.02;100.00
62708;BME280;48769;51.624;5.886;2023-03-11T03:03:05;100616.00;;;1.05;100.00
62708;BME280;48769;51.624;5.886;2023-03-11T03:05:31;100619.38;;;1.10;100.00
62708;BME280;48769;51.624;5.886;2023-03-11T03:07:57;100628.06;;;1.11;100.00
62708;BME280;48769;51.624;5.886;2023-03-11T03:10:22;100625.38;;;1.15;100.00
62708;BME280;48769;51.624;5.886;2023-03-11T03:12:48;100620.09;;;1.19;100.00
62708;BME280;48769;51.624;5.886;2023-03-11T03:15:13;100620.34;;;1.05;100.00
62708;BME280;48769;51.624;5.886;2023-03-11T03:17:40;100626.34;;;1.08;100.00
62708;BME280;48769;51.624;5.886;2023-03-11T03:20:06;100635.78;;;1.15;100.00
62708;BME280;48769;51.624;5.886;2023-03-11T03:22:36;100632.38;;;1.10;100.00
62708;BME280;48769;51.624;5.886;2023-03-11T03:25:01;100639.34;;;1.08;100.00
62708;BME280;48769;51.624;5.886;2023-03-11T03:27:26;100639.25;;;1.14;100.00
62708;BME280;48769;51.624;5.886;2023-03-11T03:29:52;100648.81;;;1.12;100.00
62708;BME280;48769;51.624;5.886;2023-03-11T03:32:17;100650.72;;;1.04;100.00
62708;BME280;48769;51.624;5.886;2023-03-11T03:34:42;100658.56;;;1.01;100.00
62708;BME280;48769;51.624;5.886;2023-03-11T03:37:08;100662.78;;;1.07;100.00
62708;BME280;48769;51.624;5.886;2023-03-11T03:39:33;100670.66;;;1.02;100.00
62708;BME280;48769;51.624;5.886;2023-03-11T03:41:58;100681.03;;;1.05;100.00
62708;BME280;48769;51.624;5.886;2023-03-11T03:44:24;100677.66;;;0.99;100.00
62708;BME280;48769;51.624;5.886;2023-03-11T03:46:49;100681.97;;;1.01;100.00
62708;BME280;48769;51.624;5.886;2023-03-11T03:49:15;100684.63;;;0.97;100.00
62708;BME280;48769;51.624;5.886;2023-03-11T03:51:40;100684.56;;;1.00;100.00
62708;BME280;48769;51.624;5.886;2023-03-11T03:54:05;100686.31;;;0.99;100.00
62708;BME280;48769;51.624;5.886;2023-03-11T03:56:30;100694.97;;;1.00;100.00
62708;BME280;48769;51.624;5.886;2023-03-11T03:58:56;100687.97;;;1.03;100.00
62708;BME280;48769;51.624;5.886;2023-03-11T04:01:21;100686.19;;;1.07;100.00
62708;BME280;48769;51.624;5.886;2023-03-11T04:03:47;100690.50;;;1.09;100.00
62708;BME280;48769;51.624;5.886;2023-03-11T04:06:18;100689.69;;;1.07;100.00
62708;BME280;48769;51.624;5.886;2023-03-11T04:08:44;100691.34;;;1.10;100.00
62708;BME280;48769;51.624;5.886;2023-03-11T04:11:09;100693.13;;;1.08;100.00
62708;BME280;48769;51.624;5.886;2023-03-11T04:13:35;100696.69;;;1.01;100.00
62708;BME280;48769;51.624;5.886;2023-03-11T04:16:03;100694.09;;;1.01;100.00
62708;BME280;48769;51.624;5.886;2023-03-11T04:18:28;100703.75;;;0.91;100.00
62708;BME280;48769;51.624;5.886;2023-03-11T04:20:54;100702.00;;;0.93;100.00
62708;BME280;48769;51.624;5.886;2023-03-11T04:23:19;100703.72;;;0.94;100.00
62708;BME280;48769;51.624;5.886;2023-03-11T04:25:45;100705.47;;;0.95;100.00
62708;BME280;48769;51.624;5.886;2023-03-11T04:28:10;100703.72;;;0.94;100.00
62708;BME280;48769;51.624;5.886;2023-03-11T04:30:36;100707.25;;;0.90;100.00
62708;BME280;48769;51.624;5.886;2023-03-11T04:33:01;100705.59;;;0.86;100.00
62708;BME280;48769;51.624;5.886;2023-03-11T04:35:26;100705.69;;;0.78;100.00
62708;BME280;48769;51.624;5.886;2023-03-11T04:37:52;100718.81;;;0.69;100.00
62708;BME280;48769;51.624;5.886;2023-03-11T04:40:17;100715.47;;;0.58;100.00
62708;BME280;48769;51.624;5.886;2023-03-11T04:42:42;100718.19;;;0.50;100.00
62708;BME280;48769;51.624;5.886;2023-03-11T04:45:08;100714.81;;;0.42;100.00
62708;BME280;48769;51.624;5.886;2023-03-11T04:47:35;100714.97;;;0.30;100.00
62708;BME280;48769;51.624;5.886;2023-03-11T04:50:00;100709.78;;;0.30;100.00
62708;BME280;48769;51.624;5.886;2023-03-11T04:52:25;100714.16;;;0.26;100.00
62708;BME280;48769;51.624;5.886;2023-03-11T04:54:51;100713.28;;;0.22;100.00
62708;BME280;48769;51.624;5.886;2023-03-11T04:57:16;100720.28;;;0.16;100.00
62708;BME280;48769;51.624;5.886;2023-03-11T04:59:41;100716.88;;;0.14;100.00
62708;BME280;48769;51.624;5.886;2023-03-11T05:02:07;100720.34;;;0.11;100.00
62708;BME280;48769;51.624;5.886;2023-03-11T05:04:32;100727.28;;;0.09;100.00
62708;BME280;48769;51.624;5.886;2023-03-11T05:06:58;100734.25;;;0.07;100.00
62708;BME280;48769;51.624;5.886;2023-03-11T05:09:23;100729.09;;;0.04;100.00
62708;BME280;48769;51.624;5.886;2023-03-11T05:11:48;100723.91;;;0.04;100.00
62708;BME280;48769;51.624;5.886;2023-03-11T05:14:14;100720.44;;;0.04;100.00
62708;BME280;48769;51.624;5.886;2023-03-11T05:16:39;100728.28;;;0.01;100.00
62708;BME280;48769;51.624;5.886;2023-03-11T05:19:04;100730.00;;;0.00;100.00
62708;BME280;48769;51.624;5.886;2023-03-11T05:21:50;100730.88;;;-0.04;100.00
62708;BME280;48769;51.624;5.886;2023-03-11T05:24:15;100732.66;;;-0.06;100.00
62708;BME280;48769;51.624;5.886;2023-03-11T05:26:40;100734.41;;;-0.08;100.00
62708;BME280;48769;51.624;5.886;2023-03-11T05:29:06;100741.34;;;-0.10;100.00
62708;BME280;48769;51.624;5.886;2023-03-11T05:31:31;100744.81;;;-0.11;100.00
62708;BME280;48769;51.624;5.886;2023-03-11T05:33:56;100749.19;;;-0.15;100.00
62708;BME280;48769;51.624;5.886;2023-03-11T05:36:22;100752.66;;;-0.16;100.00
62708;BME280;48769;51.624;5.886;2023-03-11T05:38:47;100758.72;;;-0.15;100.00
62708;BME280;48769;51.624;5.886;2023-03-11T05:41:12;100748.34;;;-0.18;100.00
62708;BME280;48769;51.624;5.886;2023-03-11T05:43:38;100748.38;;;-0.21;100.00
62708;BME280;48769;51.624;5.886;2023-03-11T05:46:03;100753.59;;;-0.25;100.00
62708;BME280;48769;51.624;5.886;2023-03-11T05:48:31;100749.28;;;-0.27;100.00
62708;BME280;48769;51.624;5.886;2023-03-11T05:50:57;100757.13;;;-0.32;100.00
62708;BME280;48769;51.624;5.886;2023-03-11T05:53:23;100765.78;;;-0.36;100.00
62708;BME280;48769;51.624;5.886;2023-03-11T05:55:59;100767.56;;;-0.41;100.00
62708;BME280;48769;51.624;5.886;2023-03-11T05:58:25;100774.50;;;-0.43;100.00
62708;BME280;48769;51.624;5.886;2023-03-11T06:00:51;100777.94;;;-0.41;100.00
62708;BME280;48769;51.624;5.886;2023-03-11T06:03:16;100783.94;;;-0.36;100.00
62708;BME280;48769;51.624;5.886;2023-03-11T06:05:46;100783.06;;;-0.32;100.00
62708;BME280;48769;51.624;5.886;2023-03-11T06:08:12;100779.63;;;-0.34;100.00
62708;BME280;48769;51.624;5.886;2023-03-11T06:10:37;100786.53;;;-0.33;100.00
62708;BME280;48769;51.624;5.886;2023-03-11T06:13:03;100793.44;;;-0.29;100.00
62708;BME280;48769;51.624;5.886;2023-03-11T06:15:28;100791.66;;;-0.24;100.00
62708;BME280;48769;51.624;5.886;2023-03-11T06:17:54;100791.66;;;-0.24;100.00
62708;BME280;48769;51.624;5.886;2023-03-11T06:20:19;100790.84;;;-0.29;100.00
62708;BME280;48769;51.624;5.886;2023-03-11T06:22:47;100801.22;;;-0.30;100.00
62708;BME280;48769;51.624;5.886;2023-03-11T06:25:13;100806.41;;;-0.30;100.00
62708;BME280;48769;51.624;5.886;2023-03-11T06:27:38;100801.22;;;-0.29;100.00
62708;BME280;48769;51.624;5.886;2023-03-11T06:30:04;100817.59;;;-0.20;100.00
62708;BME280;48769;51.624;5.886;2023-03-11T06:32:29;100811.50;;;-0.15;100.00
62708;BME280;48769;51.624;5.886;2023-03-11T06:34:55;100817.53;;;-0.14;100.00
62708;BME280;48769;51.624;5.886;2023-03-11T06:37:20;100818.38;;;-0.11;100.00
62708;BME280;48769;51.624;5.886;2023-03-11T06:39:51;100819.22;;;-0.10;100.00
62708;BME280;48769;51.624;5.886;2023-03-11T06:42:16;100830.53;;;-0.13;100.00
62708;BME280;48769;51.624;5.886;2023-03-11T06:44:41;100827.00;;;-0.07;100.00
62708;BME280;48769;51.624;5.886;2023-03-11T06:47:07;100834.75;;;-0.01;100.00
62708;BME280;48769;51.624;5.886;2023-03-11T06:49:32;100838.25;;;-0.08;100.00
62708;BME280;48769;51.624;5.886;2023-03-11T06:51:57;100843.47;;;-0.11;100.00
62708;BME280;48769;51.624;5.886;2023-03-11T06:54:23;100846.09;;;-0.10;100.00
62708;BME280;48769;51.624;5.886;2023-03-11T06:56:48;100846.91;;;-0.06;100.00
62708;BME280;48769;51.624;5.886;2023-03-11T06:59:14;100856.47;;;-0.10;100.00
62708;BME280;48769;51.624;5.886;2023-03-11T07:01:39;100853.84;;;-0.08;100.00
62708;BME280;48769;51.624;5.886;2023-03-11T07:04:04;100866.81;;;-0.05;100.00
62708;BME280;48769;51.624;5.886;2023-03-11T07:06:30;100870.16;;;0.11;100.00
62708;BME280;48769;51.624;5.886;2023-03-11T07:08:55;100869.16;;;0.22;100.00
62708;BME280;48769;51.624;5.886;2023-03-11T07:11:22;100870.75;;;0.40;100.00
62708;BME280;48769;51.624;5.886;2023-03-11T07:13:48;100887.50;;;0.98;100.00
62708;BME280;48769;51.624;5.886;2023-03-11T07:16:24;100876.09;;;1.73;100.00
62708;BME280;48769;51.624;5.886;2023-03-11T07:18:51;100875.84;;;2.43;100.00
62708;BME280;48769;51.624;5.886;2023-03-11T07:21:19;100881.84;;;2.46;100.00
62708;BME280;48769;51.624;5.886;2023-03-11T07:23:45;100882.31;;;2.70;100.00
62708;BME280;48769;51.624;5.886;2023-03-11T07:26:12;100881.66;;;3.03;100.00
62708;BME280;48769;51.624;5.886;2023-03-11T07:28:38;100891.34;;;3.40;100.00
62708;BME280;48769;51.624;5.886;2023-03-11T07:31:12;100893.09;;;4.16;100.00
62708;BME280;48769;51.624;5.886;2023-03-11T07:33:37;100890.81;;;4.38;100.00
62708;BME280;48769;51.624;5.886;2023-03-11T07:36:08;100887.59;;;4.93;100.00
62708;BME280;48769;51.624;5.886;2023-03-11T07:38:34;100884.94;;;5.84;100.00
62708;BME280;48769;51.624;5.886;2023-03-11T07:41:00;100876.56;;;7.04;100.00
62708;BME280;48769;51.624;5.886;2023-03-11T07:43:25;100877.97;;;8.48;100.00
62708;BME280;48769;51.624;5.886;2023-03-11T07:45:50;100870.84;;;9.49;100.00
62708;BME280;48769;51.624;5.886;2023-03-11T07:48:17;100868.09;;;9.12;100.00
62708;BME280;48769;51.624;5.886;2023-03-11T07:50:42;100861.25;;;9.84;100.00
62708;BME280;48769;51.624;5.886;2023-03-11T07:53:07;100867.28;;;10.92;100.00
62708;BME280;48769;51.624;5.886;2023-03-11T07:55:33;100848.41;;;11.80;100.00
62708;BME280;48769;51.624;5.886;2023-03-11T07:57:58;100844.72;;;11.99;100.00
62708;BME280;48769;51.624;5.886;2023-03-11T08:00:24;100840.75;;;12.66;98.00
62708;BME280;48769;51.624;5.886;2023-03-11T08:02:49;100844.38;;;13.08;85.67
62708;BME280;48769;51.624;5.886;2023-03-11T08:05:15;100845.31;;;13.36;67.85
62708;BME280;48769;51.624;5.886;2023-03-11T08:07:40;100845.28;;;14.18;53.87
62708;BME280;48769;51.624;5.886;2023-03-11T08:10:06;100846.16;;;14.97;47.50
62708;BME280;48769;51.624;5.886;2023-03-11T08:12:31;100840.44;;;15.40;46.61
62708;BME280;48769;51.624;5.886;2023-03-11T08:14:57;100848.75;;;15.48;45.52
62708;BME280;48769;51.624;5.886;2023-03-11T08:17:22;100848.97;;;15.45;44.03
62708;BME280;48769;51.624;5.886;2023-03-11T08:19:48;100857.41;;;16.24;43.30
62708;BME280;48769;51.624;5.886;2023-03-11T08:22:13;100844.22;;;16.57;40.43
62708;BME280;48769;51.624;5.886;2023-03-11T08:24:39;100848.88;;;16.89;39.41
62708;BME280;48769;51.624;5.886;2023-03-11T08:27:04;100864.81;;;16.67;40.24
62708;BME280;48769;51.624;5.886;2023-03-11T08:29:29;100878.63;;;17.07;39.44
62708;BME280;48769;51.624;5.886;2023-03-11T08:31:55;100874.13;;;17.52;36.82
62708;BME280;48769;51.624;5.886;2023-03-11T08:34:20;100869.72;;;17.74;36.90
62708;BME280;48769;51.624;5.886;2023-03-11T08:36:46;100866.31;;;16.71;37.17
62708;BME280;48769;51.624;5.886;2023-03-11T08:39:12;100870.69;;;17.73;36.69
62708;BME280;48769;51.624;5.886;2023-03-11T08:41:37;100872.09;;;18.64;35.89
62708;BME280;48769;51.624;5.886;2023-03-11T08:44:03;100858.28;;;17.94;33.44
62708;BME280;48769;51.624;5.886;2023-03-11T08:46:31;100866.00;;;17.43;35.38
62708;BME280;48769;51.624;5.886;2023-03-11T08:48:59;100873.22;;;17.97;35.28
62708;BME280;48769;51.624;5.886;2023-03-11T08:51:25;100875.69;;;18.53;34.26
62708;BME280;48769;51.624;5.886;2023-03-11T08:53:51;100875.09;;;18.50;33.70
62708;BME280;48769;51.624;5.886;2023-03-11T08:56:17;100873.25;;;18.50;33.41
62708;BME280;48769;51.624;5.886;2023-03-11T08:58:43;100897.13;;;18.95;34.52
62708;BME280;48769;51.624;5.886;2023-03-11T09:01:10;100895.28;;;19.26;34.25
62708;BME280;48769;51.624;5.886;2023-03-11T09:03:36;100893.25;;;19.70;32.47
62708;BME280;48769;51.624;5.886;2023-03-11T09:06:05;100899.38;;;20.11;31.86
62708;BME280;48769;51.624;5.886;2023-03-11T09:08:31;100909.19;;;20.51;29.76
62708;BME280;48769;51.624;5.886;2023-03-11T09:10:56;100910.31;;;20.58;31.39
62708;BME280;48769;51.624;5.886;2023-03-11T09:13:22;100906.31;;;20.43;30.33
62708;BME280;48769;51.624;5.886;2023-03-11T09:15:51;100907.53;;;19.90;30.62
62708;BME280;48769;51.624;5.886;2023-03-11T09:18:17;100906.63;;;19.39;30.42
62708;BME280;48769;51.624;5.886;2023-03-11T09:20:43;100906.56;;;18.78;31.37
62708;BME280;48769;51.624;5.886;2023-03-11T09:23:11;100906.84;;;18.75;32.01
62708;BME280;48769;51.624;5.886;2023-03-11T09:25:37;100914.88;;;18.75;32.50
62708;BME280;48769;51.624;5.886;2023-03-11T09:28:03;100909.91;;;18.38;32.74
62708;BME280;48769;51.624;5.886;2023-03-11T09:30:28;100910.53;;;17.76;33.62
62708;BME280;48769;51.624;5.886;2023-03-11T09:32:54;100912.88;;;17.58;32.29
62708;BME280;48769;51.624;5.886;2023-03-11T09:35:19;100927.06;;;17.59;32.26
62708;BME280;48769;51.624;5.886;2023-03-11T09:37:44;100928.22;;;16.63;33.79
62708;BME280;48769;51.624;5.886;2023-03-11T09:40:16;100918.06;;;15.47;34.29
62708;BME280;48769;51.624;5.886;2023-03-11T09:45:31;100921.38;;;14.99;34.47
62708;BME280;48769;51.624;5.886;2023-03-11T09:55:54;100928.00;;;15.19;35.63
62708;BME280;48769;51.624;5.886;2023-03-11T09:58:44;100935.63;;;15.11;35.76
62708;BME280;48769;51.624;5.886;2023-03-11T10:01:23;100946.91;;;15.27;35.93
62708;BME280;48769;51.624;5.886;2023-03-11T10:03:53;100937.81;;;14.39;34.80
62708;BME280;48769;51.624;5.886;2023-03-11T10:06:24;100933.66;;;13.38;36.35
62708;BME280;48769;51.624;5.886;2023-03-11T10:11:29;100941.97;;;12.27;36.87
62708;BME280;48769;51.624;5.886;2023-03-11T10:17:06;100940.56;;;12.81;36.84
62708;BME280;48769;51.624;5.886;2023-03-11T10:19:47;100933.44;;;12.68;37.51
62708;BME280;48769;51.624;5.886;2023-03-11T10:22:27;100929.06;;;12.67;37.99
62708;BME280;48769;51.624;5.886;2023-03-11T10:25:10;100939.41;;;12.71;36.88
62708;BME280;48769;51.624;5.886;2023-03-11T10:27:47;100936.00;;;12.69;35.45
62708;BME280;48769;51.624;5.886;2023-03-11T10:33:01;100942.63;;;12.76;36.94
62708;BME280;48769;51.624;5.886;2023-03-11T10:35:40;100948.97;;;13.18;37.34
62708;BME280;48769;51.624;5.886;2023-03-11T10:38:19;100941.63;;;13.38;36.66
62708;BME280;48769;51.624;5.886;2023-03-11T10:40:47;100944.16;;;12.50;37.13
62708;BME280;48769;51.624;5.886;2023-03-11T10:43:18;100947.59;;;12.36;37.08
62708;BME280;48769;51.624;5.886;2023-03-11T10:45:45;100945.16;;;12.02;36.35
62708;BME280;48769;51.624;5.886;2023-03-11T10:48:17;100949.25;;;11.09;37.20
62708;BME280;48769;51.624;5.886;2023-03-11T10:53:17;100962.84;;;11.52;39.10
62708;BME280;48769;51.624;5.886;2023-03-11T10:55:49;100970.19;;;11.63;39.52
62708;BME280;48769;51.624;5.886;2023-03-11T10:58:27;100967.00;;;12.37;39.90
62708;BME280;48769;51.624;5.886;2023-03-11T11:01:12;100972.81;;;12.12;38.96
62708;BME280;48769;51.624;5.886;2023-03-11T11:03:41;100954.88;;;12.01;38.27
62708;BME280;48769;51.624;5.886;2023-03-11T11:06:19;100951.56;;;11.98;38.19
62708;BME280;48769;51.624;5.886;2023-03-11T11:08:45;100961.22;;;12.14;39.39
62708;BME280;48769;51.624;5.886;2023-03-11T11:11:22;100953.13;;;12.48;38.54
62708;BME280;48769;51.624;5.886;2023-03-11T11:13:59;100942.81;;;12.27;35.14
62708;BME280;48769;51.624;5.886;2023-03-11T11:16:26;100948.41;;;11.91;36.61
62708;BME280;48769;51.624;5.886;2023-03-11T11:19:03;100946.81;;;11.71;37.24
62708;BME280;48769;51.624;5.886;2023-03-11T11:21:48;100952.09;;;11.05;37.05
62708;BME280;48769;51.624;5.886;2023-03-11T11:24:28;100960.66;;;11.10;38.05
62708;BME280;48769;51.624;5.886;2023-03-11T11:27:19;100961.09;;;11.35;38.00
62708;BME280;48769;51.624;5.886;2023-03-11T11:29:46;100958.59;;;11.81;39.31
62708;BME280;48769;51.624;5.886;2023-03-11T11:34:38;100942.13;;;11.76;36.43
62708;BME280;48769;51.624;5.886;2023-03-11T11:37:04;100949.25;;;11.09;37.23
62708;BME280;48769;51.624;5.886;2023-03-11T11:40:02;100950.31;;;10.88;37.75
62708;BME280;48769;51.624;5.886;2023-03-11T11:42:36;100960.25;;;10.48;39.64
62708;BME280;48769;51.624;5.886;2023-03-11T11:45:54;100956.06;;;10.61;40.03
62708;BME280;48769;51.624;5.886;2023-03-11T11:47:59;100957.72;;;10.09;40.24
62708;BME280;48769;51.624;5.886;2023-03-11T11:50:33;100957.84;;;9.88;40.72
62708;BME280;48769;51.624;5.886;2023-03-11T11:56:03;100960.25;;;10.31;42.26
62708;BME280;48769;51.624;5.886;2023-03-11T11:58:29;100951.72;;;10.24;41.48
62708;BME280;48769;51.624;5.886;2023-03-11T12:01:04;100959.31;;;10.49;40.77
62708;BME280;48769;51.624;5.886;2023-03-11T12:06:25;100957.25;;;10.90;39.58
62708;BME280;48769;51.624;5.886;2023-03-11T12:09:05;100953.91;;;11.37;39.21
62708;BME280;48769;51.624;5.886;2023-03-11T12:12:05;100964.13;;;11.94;39.02
62708;BME280;48769;51.624;5.886;2023-03-11T12:14:48;100957.25;;;12.22;38.06
62708;BME280;48769;51.624;5.886;2023-03-11T12:17:19;100957.00;;;12.72;35.82
62708;BME280;48769;51.624;5.886;2023-03-11T12:19:58;100957.94;;;13.46;37.70
62708;BME280;48769;51.624;5.886;2023-03-11T12:25:29;100945.78;;;14.53;33.16
62708;BME280;48769;51.624;5.886;2023-03-11T12:28:22;100950.06;;;14.68;33.83
62708;BME280;48769;51.624;5.886;2023-03-11T12:30:52;100949.06;;;15.09;32.71
62708;BME280;48769;51.624;5.886;2023-03-11T12:36:06;100939.28;;;14.57;32.24
62708;BME280;48769;51.624;5.886;2023-03-11T12:38:46;100945.41;;;14.85;31.84
62708;BME280;48769;51.624;5.886;2023-03-11T12:46:13;100930.44;;;15.97;31.33
62708;BME280;48769;51.624;5.886;2023-03-11T12:49:04;100916.78;;;16.02;29.26
62708;BME280;48769;51.624;5.886;2023-03-11T12:54:27;100934.25;;;16.89;29.06
62708;BME280;48769;51.624;5.886;2023-03-11T12:57:01;100930.50;;;16.80;29.99
62708;BME280;48769;51.624;5.886;2023-03-11T13:12:54;100900.59;;;17.22;27.38
62708;BME280;48769;51.624;5.886;2023-03-11T13:18:11;100896.13;;;17.79;27.44
62708;BME280;48769;51.624;5.886;2023-03-11T13:31:02;100892.31;;;16.91;25.43
62708;BME280;48769;51.624;5.886;2023-03-11T13:39:12;100904.72;;;17.82;25.33
62708;BME280;48769;51.624;5.886;2023-03-11T13:41:43;100900.84;;;17.52;25.94
62708;BME280;48769;51.624;5.886;2023-03-11T13:47:06;100898.41;;;17.61;26.16
62708;BME280;48769;51.624;5.886;2023-03-11T13:49:41;100897.16;;;15.53;26.33
62708;BME280;48769;51.624;5.886;2023-03-11T13:52:15;100906.44;;;14.58;28.36
62708;BME280;48769;51.624;5.886;2023-03-11T13:57:20;100910.25;;;14.00;28.58
62708;BME280;48769;51.624;5.886;2023-03-11T13:59:51;100918.94;;;14.43;30.19
62708;BME280;48769;51.624;5.886;2023-03-11T14:02:18;100916.41;;;14.55;29.47
62708;BME280;48769;51.624;5.886;2023-03-11T14:05:03;100911.50;;;14.21;28.43
62708;BME280;48769;51.624;5.886;2023-03-11T14:07:32;100915.41;;;13.89;29.67
62708;BME280;48769;51.624;5.886;2023-03-11T14:12:36;100925.19;;;13.74;32.68
62708;BME280;48769;51.624;5.886;2023-03-11T14:15:04;100935.88;;;13.87;32.87
62708;BME280;48769;51.624;5.886;2023-03-11T14:17:31;100924.69;;;13.96;31.48
62708;BME280;48769;51.624;5.886;2023-03-11T14:20:09;100926.00;;;13.33;31.41
62708;BME280;48769;51.624;5.886;2023-03-11T14:22:36;100927.81;;;12.58;32.55
62708;BME280;48769;51.624;5.886;2023-03-11T14:25:08;100932.53;;;11.91;33.04
62708;BME280;48769;51.624;5.886;2023-03-11T14:27:36;100946.84;;;12.19;34.29